Benedetta 2 — J870G — position and weather

sailwx.info

Track history (hours):
 
Tides and Currents Weather Stations Pressure Air Temp Water Temp Dewpoint Dewpoint Depression Visibility Wind Speed Wind Dir Waves Ship Positions

Benedetta 2

Last reported at 2018-Jun-22 12:09 UTC. Time now 2018-Jun-22 15:05 UTC.
Position N 38°45' E 001°26'.

Length 41 m; draft 2.5 m.

Type: Pleasure craft. MMSI: 247297600.

Date/timePositionNaut miles runAvg speedWind from/ knotsBaromVisibWave heightAir tempDewpointWater temp
2018-Jun-22 12:09N 38°45' E 001°26'0 0.0
2018-Jun-22 06:36N 38°45' E 001°26'0 0.1
2018-Jun-22 06:30N 38°45' E 001°26'0 0.0
2018-Jun-22 06:00N 38°45' E 001°26'0 0.0
2018-Jun-22 05:26N 38°45' E 001°26'0 0.0
2018-Jun-22 04:59N 38°45' E 001°26'0 0.0
2018-Jun-21 13:04N 38°45' E 001°26'0 0.0
2018-Jun-21 12:49N 38°45' E 001°26'10 0.4
2018-Jun-20 09:37N 38°55' E 001°27'0 0.0
2018-Jun-20 09:13N 38°55' E 001°27'0 0.0
2018-Jun-20 08:43N 38°55' E 001°27'0 0.0
2018-Jun-20 07:36N 38°55' E 001°27'0 0.0
2018-Jun-20 07:14N 38°55' E 001°27'0 0.0
2018-Jun-20 06:53N 38°55' E 001°27'0 0.0
2018-Jun-20 05:18N 38°55' E 001°27'0 0.0
2018-Jun-20 04:57N 38°55' E 001°27'0 0.0
2018-Jun-20 04:26N 38°55' E 001°27'0 0.0
2018-Jun-20 03:57N 38°55' E 001°27'0 0.0
2018-Jun-20 03:22N 38°55' E 001°27'0 0.0
2018-Jun-20 02:49N 38°55' E 001°27'0 0.0
2018-Jun-20 02:26N 38°55' E 001°27'0 0.0
2018-Jun-20 00:19N 38°55' E 001°27'0 0.0
2018-Jun-19 23:47N 38°55' E 001°27'0 0.0
2018-Jun-19 23:25N 38°55' E 001°27'0 0.0
2018-Jun-19 22:28N 38°55' E 001°27'0 0.0
2018-Jun-19 19:59N 38°55' E 001°27'0 0.0
2018-Jun-19 19:30N 38°55' E 001°27'0 0.0
2018-Jun-19 18:58N 38°55' E 001°27'0 0.0
2018-Jun-19 18:24N 38°55' E 001°27'0 0.0
2018-Jun-19 18:00N 38°55' E 001°27'0 0.0
2018-Jun-19 17:28N 38°55' E 001°27'0 0.0
2018-Jun-19 16:57N 38°55' E 001°27'1 1.3
2018-Jun-19 16:30N 38°54' E 001°27'9 0.2
2018-Jun-17 15:02N 38°45' E 001°26'0 0.1
2018-Jun-17 15:01N 38°45' E 001°26'0 0.0
2018-Jun-17 14:29N 38°45' E 001°26'0 0.0
2018-Jun-17 13:38N 38°45' E 001°26'0 0.0
2018-Jun-17 13:27N 38°45' E 001°26'0 0.1
2018-Jun-17 12:58N 38°45' E 001°26'0 0.1
2018-Jun-17 12:30N 38°45' E 001°26'0 0.0
2018-Jun-17 11:51N 38°45' E 001°26'0 0.0
2018-Jun-17 11:23N 38°45' E 001°26'0 0.0
2018-Jun-17 10:57N 38°45' E 001°26'0 0.0
2018-Jun-17 08:27N 38°45' E 001°26'0 0.0
2018-Jun-17 06:24N 38°45' E 001°26'0 0.0
2018-Jun-17 05:49N 38°45' E 001°26'0 0.0
2018-Jun-17 05:25N 38°45' E 001°26'0 0.0
2018-Jun-17 04:30N 38°45' E 001°26'0 0.0
2018-Jun-17 03:54N 38°45' E 001°26'0 0.0
2018-Jun-17 03:30N 38°45' E 001°26'0 0.0
2018-Jun-17 01:12N 38°45' E 001°26'0 0.0
2018-Jun-17 01:01N 38°45' E 001°26'0 0.0
2018-Jun-17 00:30N 38°45' E 001°26'0 0.0
2018-Jun-17 00:00N 38°45' E 001°26'0 0.0
2018-Jun-16 22:46N 38°45' E 001°26'0 0.0
2018-Jun-16 22:24N 38°45' E 001°26'0 0.0
2018-Jun-16 21:25N 38°45' E 001°26'0 0.0
2018-Jun-16 19:54N 38°45' E 001°26'0 0.0
2018-Jun-16 19:00N 38°45' E 001°26'0 0.0
2018-Jun-16 18:22N 38°45' E 001°26'10 5.7
2018-Jun-16 16:38N 38°55' E 001°28'0 0.0
2018-Jun-16 16:28N 38°55' E 001°28'0 0.0
2018-Jun-16 16:00N 38°55' E 001°28'0 0.0
2018-Jun-16 15:29N 38°55' E 001°28'0 0.0
2018-Jun-16 15:00N 38°55' E 001°28'0 0.0
2018-Jun-16 11:51N 38°55' E 001°28'0 0.0
2018-Jun-16 11:30N 38°55' E 001°28'0 0.0
2018-Jun-16 10:46N 38°55' E 001°28'0 0.0
2018-Jun-16 10:28N 38°55' E 001°28'7 2.9
2018-Jun-16 08:00N 38°52' E 001°19'0 0.0
2018-Jun-16 04:46N 38°52' E 001°19'0 0.0
2018-Jun-16 01:39N 38°52' E 001°19'0 0.0
2018-Jun-16 01:11N 38°52' E 001°19'0 0.0
2018-Jun-16 00:12N 38°52' E 001°19'0 0.0
2018-Jun-15 23:55N 38°52' E 001°19'0 0.0
2018-Jun-15 18:44N 38°52' E 001°19'0 0.0
2018-Jun-15 18:22N 38°52' E 001°19'0 0.0
2018-Jun-15 18:00N 38°52' E 001°19'  
Track history (hours):
 
Tides and Currents Weather Stations Pressure Air Temp Water Temp Dewpoint Dewpoint Depression Visibility Wind Speed Wind Dir Waves Ship Positions

Benedetta 2

Last reported at 2018-Jun-22 12:09 UTC. Time now 2018-Jun-22 15:05 UTC.
Position N 38°45' E 001°26'.

Length 41 m; draft 2.5 m.

Type: Pleasure craft. MMSI: 247297600.

Date/timePositionNaut miles runAvg speedWind from/ knotsBaromVisibWave heightAir tempDewpointWater temp
2018-Jun-22 12:09N 38°45' E 001°26'0 0.0
2018-Jun-22 06:36N 38°45' E 001°26'0 0.1
2018-Jun-22 06:30N 38°45' E 001°26'0 0.0
2018-Jun-22 06:00N 38°45' E 001°26'0 0.0
2018-Jun-22 05:26N 38°45' E 001°26'0 0.0
2018-Jun-22 04:59N 38°45' E 001°26'0 0.0
2018-Jun-21 13:04N 38°45' E 001°26'0 0.0
2018-Jun-21 12:49N 38°45' E 001°26'10 0.4
2018-Jun-20 09:37N 38°55' E 001°27'0 0.0
2018-Jun-20 09:13N 38°55' E 001°27'0 0.0
2018-Jun-20 08:43N 38°55' E 001°27'0 0.0
2018-Jun-20 07:36N 38°55' E 001°27'0 0.0
2018-Jun-20 07:14N 38°55' E 001°27'0 0.0
2018-Jun-20 06:53N 38°55' E 001°27'0 0.0
2018-Jun-20 05:18N 38°55' E 001°27'0 0.0
2018-Jun-20 04:57N 38°55' E 001°27'0 0.0
2018-Jun-20 04:26N 38°55' E 001°27'0 0.0
2018-Jun-20 03:57N 38°55' E 001°27'0 0.0
2018-Jun-20 03:22N 38°55' E 001°27'0 0.0
2018-Jun-20 02:49N 38°55' E 001°27'0 0.0
2018-Jun-20 02:26N 38°55' E 001°27'0 0.0
2018-Jun-20 00:19N 38°55' E 001°27'0 0.0
2018-Jun-19 23:47N 38°55' E 001°27'0 0.0
2018-Jun-19 23:25N 38°55' E 001°27'0 0.0
2018-Jun-19 22:28N 38°55' E 001°27'0 0.0
2018-Jun-19 19:59N 38°55' E 001°27'0 0.0
2018-Jun-19 19:30N 38°55' E 001°27'0 0.0
2018-Jun-19 18:58N 38°55' E 001°27'0 0.0
2018-Jun-19 18:24N 38°55' E 001°27'0 0.0
2018-Jun-19 18:00N 38°55' E 001°27'0 0.0
2018-Jun-19 17:28N 38°55' E 001°27'0 0.0
2018-Jun-19 16:57N 38°55' E 001°27'1 1.3
2018-Jun-19 16:30N 38°54' E 001°27'9 0.2
2018-Jun-17 15:02N 38°45' E 001°26'0 0.1
2018-Jun-17 15:01N 38°45' E 001°26'0 0.0
2018-Jun-17 14:29N 38°45' E 001°26'0 0.0
2018-Jun-17 13:38N 38°45' E 001°26'0 0.0
2018-Jun-17 13:27N 38°45' E 001°26'0 0.1
2018-Jun-17 12:58N 38°45' E 001°26'0 0.1
2018-Jun-17 12:30N 38°45' E 001°26'0 0.0
2018-Jun-17 11:51N 38°45' E 001°26'0 0.0
2018-Jun-17 11:23N 38°45' E 001°26'0 0.0
2018-Jun-17 10:57N 38°45' E 001°26'0 0.0
2018-Jun-17 08:27N 38°45' E 001°26'0 0.0
2018-Jun-17 06:24N 38°45' E 001°26'0 0.0
2018-Jun-17 05:49N 38°45' E 001°26'0 0.0
2018-Jun-17 05:25N 38°45' E 001°26'0 0.0
2018-Jun-17 04:30N 38°45' E 001°26'0 0.0
2018-Jun-17 03:54N 38°45' E 001°26'0 0.0
2018-Jun-17 03:30N 38°45' E 001°26'0 0.0
2018-Jun-17 01:12N 38°45' E 001°26'0 0.0
2018-Jun-17 01:01N 38°45' E 001°26'0 0.0
2018-Jun-17 00:30N 38°45' E 001°26'0 0.0
2018-Jun-17 00:00N 38°45' E 001°26'0 0.0
2018-Jun-16 22:46N 38°45' E 001°26'0 0.0
2018-Jun-16 22:24N 38°45' E 001°26'0 0.0
2018-Jun-16 21:25N 38°45' E 001°26'0 0.0
2018-Jun-16 19:54N 38°45' E 001°26'0 0.0
2018-Jun-16 19:00N 38°45' E 001°26'0 0.0
2018-Jun-16 18:22N 38°45' E 001°26'10 5.7
2018-Jun-16 16:38N 38°55' E 001°28'0 0.0
2018-Jun-16 16:28N 38°55' E 001°28'0 0.0
2018-Jun-16 16:00N 38°55' E 001°28'0 0.0
2018-Jun-16 15:29N 38°55' E 001°28'0 0.0
2018-Jun-16 15:00N 38°55' E 001°28'0 0.0
2018-Jun-16 11:51N 38°55' E 001°28'0 0.0
2018-Jun-16 11:30N 38°55' E 001°28'0 0.0
2018-Jun-16 10:46N 38°55' E 001°28'0 0.0
2018-Jun-16 10:28N 38°55' E 001°28'7 2.9
2018-Jun-16 08:00N 38°52' E 001°19'0 0.0
2018-Jun-16 04:46N 38°52' E 001°19'0 0.0
2018-Jun-16 01:39N 38°52' E 001°19'0 0.0
2018-Jun-16 01:11N 38°52' E 001°19'0 0.0
2018-Jun-16 00:12N 38°52' E 001°19'0 0.0
2018-Jun-15 23:55N 38°52' E 001°19'0 0.0
2018-Jun-15 18:44N 38°52' E 001°19'0 0.0
2018-Jun-15 18:22N 38°52' E 001°19'0 0.0
2018-Jun-15 18:00N 38°52' E 001°19'  

Dump ship's entire track history